sensor_id;sensor_type;location;lat;lon;timestamp;temperature;humidity
26655;DHT22;14278;50.784;4.630;2023-04-01T00:00:52;10.40;99.90
26655;DHT22;14278;50.784;4.630;2023-04-01T00:03:19;10.50;99.90
26655;DHT22;14278;50.784;4.630;2023-04-01T00:05:45;10.60;99.90
26655;DHT22;14278;50.784;4.630;2023-04-01T00:08:11;10.50;99.90
26655;DHT22;14278;50.784;4.630;2023-04-01T00:10:37;10.50;99.90
26655;DHT22;14278;50.784;4.630;2023-04-01T00:13:03;10.40;99.90
26655;DHT22;14278;50.784;4.630;2023-04-01T00:15:30;10.40;99.90
26655;DHT22;14278;50.784;4.630;2023-04-01T00:17:56;10.50;99.90
26655;DHT22;14278;50.784;4.630;2023-04-01T00:20:22;10.60;99.90
26655;DHT22;14278;50.784;4.630;2023-04-01T00:22:48;10.40;99.90
26655;DHT22;14278;50.784;4.630;2023-04-01T00:25:14;10.40;99.90
26655;DHT22;14278;50.784;4.630;2023-04-01T00:27:40;10.50;99.90
26655;DHT22;14278;50.784;4.630;2023-04-01T00:30:07;10.50;99.90
26655;DHT22;14278;50.784;4.630;2023-04-01T00:32:33;10.60;99.90
26655;DHT22;14278;50.784;4.630;2023-04-01T00:34:59;10.60;99.90
26655;DHT22;14278;50.784;4.630;2023-04-01T00:37:26;10.60;99.90
26655;DHT22;14278;50.784;4.630;2023-04-01T00:39:53;10.60;99.90
26655;DHT22;14278;50.784;4.630;2023-04-01T00:42:19;10.40;99.90
26655;DHT22;14278;50.784;4.630;2023-04-01T00:44:53;10.40;99.90
26655;DHT22;14278;50.784;4.630;2023-04-01T00:47:19;10.50;99.90
26655;DHT22;14278;50.784;4.630;2023-04-01T00:49:49;10.40;99.90
26655;DHT22;14278;50.784;4.630;2023-04-01T00:52:19;10.40;99.90
26655;DHT22;14278;50.784;4.630;2023-04-01T00:54:50;10.50;99.90
26655;DHT22;14278;50.784;4.630;2023-04-01T00:57:38;10.40;99.90
26655;DHT22;14278;50.784;4.630;2023-04-01T01:00:07;10.50;99.90
26655;DHT22;14278;50.784;4.630;2023-04-01T01:02:35;10.50;99.90
26655;DHT22;14278;50.784;4.630;2023-04-01T01:05:01;10.60;99.90
26655;DHT22;14278;50.784;4.630;2023-04-01T01:10:15;10.60;99.90
26655;DHT22;14278;50.784;4.630;2023-04-01T01:12:59;10.60;99.90
26655;DHT22;14278;50.784;4.630;2023-04-01T01:15:32;10.70;99.90
26655;DHT22;14278;50.784;4.630;2023-04-01T01:18:27;10.60;99.90
26655;DHT22;14278;50.784;4.630;2023-04-01T01:21:30;10.60;99.90
26655;DHT22;14278;50.784;4.630;2023-04-01T01:26:55;10.70;99.90
26655;DHT22;14278;50.784;4.630;2023-04-01T01:35:33;10.60;99.90
26655;DHT22;14278;50.784;4.630;2023-04-01T01:38:04;10.40;99.90
26655;DHT22;14278;50.784;4.630;2023-04-01T01:40:33;10.30;99.90
26655;DHT22;14278;50.784;4.630;2023-04-01T01:43:06;10.50;99.90
26655;DHT22;14278;50.784;4.630;2023-04-01T01:45:36;10.60;99.90
26655;DHT22;14278;50.784;4.630;2023-04-01T01:48:05;10.90;99.90
26655;DHT22;14278;50.784;4.630;2023-04-01T01:50:33;10.90;99.90
26655;DHT22;14278;50.784;4.630;2023-04-01T01:53:03;10.70;99.90
26655;DHT22;14278;50.784;4.630;2023-04-01T01:55:34;10.80;99.90
26655;DHT22;14278;50.784;4.630;2023-04-01T01:58:06;10.70;99.90
26655;DHT22;14278;50.784;4.630;2023-04-01T02:00:34;10.60;99.90
26655;DHT22;14278;50.784;4.630;2023-04-01T02:03:01;10.40;99.90
26655;DHT22;14278;50.784;4.630;2023-04-01T02:05:28;10.40;99.90
26655;DHT22;14278;50.784;4.630;2023-04-01T02:08:14;10.40;99.90
26655;DHT22;14278;50.784;4.630;2023-04-01T02:10:48;10.50;99.90
26655;DHT22;14278;50.784;4.630;2023-04-01T02:13:21;10.50;99.90
26655;DHT22;14278;50.784;4.630;2023-04-01T02:15:50;10.70;99.90
26655;DHT22;14278;50.784;4.630;2023-04-01T02:18:21;10.50;99.90
26655;DHT22;14278;50.784;4.630;2023-04-01T02:20:48;10.60;99.90
26655;DHT22;14278;50.784;4.630;2023-04-01T02:23:15;10.70;99.90
26655;DHT22;14278;50.784;4.630;2023-04-01T02:25:42;10.60;99.90
26655;DHT22;14278;50.784;4.630;2023-04-01T02:28:10;10.60;99.90
26655;DHT22;14278;50.784;4.630;2023-04-01T02:30:39;10.80;99.90
26655;DHT22;14278;50.784;4.630;2023-04-01T02:33:06;10.50;99.90
26655;DHT22;14278;50.784;4.630;2023-04-01T02:35:35;10.60;99.90
26655;DHT22;14278;50.784;4.630;2023-04-01T02:38:03;10.50;99.90
26655;DHT22;14278;50.784;4.630;2023-04-01T02:40:29;10.50;99.90
26655;DHT22;14278;50.784;4.630;2023-04-01T02:42:55;10.50;99.90
26655;DHT22;14278;50.784;4.630;2023-04-01T02:45:20;10.60;99.90
26655;DHT22;14278;50.784;4.630;2023-04-01T02:47:46;10.70;99.90
26655;DHT22;14278;50.784;4.630;2023-04-01T02:50:13;10.90;99.90
26655;DHT22;14278;50.784;4.630;2023-04-01T02:52:38;11.00;99.90
26655;DHT22;14278;50.784;4.630;2023-04-01T02:55:05;10.90;99.90
26655;DHT22;14278;50.784;4.630;2023-04-01T02:57:31;10.70;99.90
26655;DHT22;14278;50.784;4.630;2023-04-01T02:59:57;10.80;99.90
26655;DHT22;14278;50.784;4.630;2023-04-01T03:02:23;10.80;99.90
26655;DHT22;14278;50.784;4.630;2023-04-01T03:04:49;10.50;99.90
26655;DHT22;14278;50.784;4.630;2023-04-01T03:07:15;10.60;99.90
26655;DHT22;14278;50.784;4.630;2023-04-01T03:09:40;10.50;99.90
26655;DHT22;14278;50.784;4.630;2023-04-01T03:12:06;10.50;99.90
26655;DHT22;14278;50.784;4.630;2023-04-01T03:14:33;10.40;99.90
26655;DHT22;14278;50.784;4.630;2023-04-01T03:16:58;10.40;99.90
26655;DHT22;14278;50.784;4.630;2023-04-01T03:19:25;10.40;99.90
26655;DHT22;14278;50.784;4.630;2023-04-01T03:21:50;10.30;99.90
26655;DHT22;14278;50.784;4.630;2023-04-01T03:24:16;10.40;99.90
26655;DHT22;14278;50.784;4.630;2023-04-01T03:26:42;10.20;99.90
26655;DHT22;14278;50.784;4.630;2023-04-01T03:29:08;10.30;99.90
26655;DHT22;14278;50.784;4.630;2023-04-01T03:31:34;10.20;99.90
26655;DHT22;14278;50.784;4.630;2023-04-01T03:34:00;10.20;99.90
26655;DHT22;14278;50.784;4.630;2023-04-01T03:36:26;10.20;99.90
26655;DHT22;14278;50.784;4.630;2023-04-01T03:38:53;10.60;99.90
26655;DHT22;14278;50.784;4.630;2023-04-01T03:41:18;10.60;99.90
26655;DHT22;14278;50.784;4.630;2023-04-01T03:43:44;10.50;99.90
26655;DHT22;14278;50.784;4.630;2023-04-01T03:46:10;10.50;99.90
26655;DHT22;14278;50.784;4.630;2023-04-01T03:48:36;10.40;99.90
26655;DHT22;14278;50.784;4.630;2023-04-01T03:51:06;10.50;99.90
26655;DHT22;14278;50.784;4.630;2023-04-01T03:53:32;10.40;99.90
26655;DHT22;14278;50.784;4.630;2023-04-01T03:55:58;10.40;99.90
26655;DHT22;14278;50.784;4.630;2023-04-01T03:58:24;10.40;99.90
26655;DHT22;14278;50.784;4.630;2023-04-01T04:00:50;10.20;99.90
26655;DHT22;14278;50.784;4.630;2023-04-01T04:03:16;10.30;99.90
26655;DHT22;14278;50.784;4.630;2023-04-01T04:05:49;10.40;99.90
26655;DHT22;14278;50.784;4.630;2023-04-01T04:08:15;10.20;99.90
26655;DHT22;14278;50.784;4.630;2023-04-01T04:10:41;10.10;99.90
26655;DHT22;14278;50.784;4.630;2023-04-01T04:13:07;10.30;99.90
26655;DHT22;14278;50.784;4.630;2023-04-01T04:15:33;10.30;99.90
26655;DHT22;14278;50.784;4.630;2023-04-01T04:17:59;10.40;99.90
26655;DHT22;14278;50.784;4.630;2023-04-01T04:20:25;10.40;99.90
26655;DHT22;14278;50.784;4.630;2023-04-01T04:22:51;10.50;99.90
26655;DHT22;14278;50.784;4.630;2023-04-01T04:25:17;10.40;99.90
26655;DHT22;14278;50.784;4.630;2023-04-01T04:27:44;10.20;99.90
26655;DHT22;14278;50.784;4.630;2023-04-01T04:30:10;10.20;99.90
26655;DHT22;14278;50.784;4.630;2023-04-01T04:32:36;10.20;99.90
26655;DHT22;14278;50.784;4.630;2023-04-01T04:35:02;10.20;99.90
26655;DHT22;14278;50.784;4.630;2023-04-01T04:37:28;10.10;99.90
26655;DHT22;14278;50.784;4.630;2023-04-01T04:39:54;10.10;99.90
26655;DHT22;14278;50.784;4.630;2023-04-01T04:42:20;10.40;99.90
26655;DHT22;14278;50.784;4.630;2023-04-01T04:44:46;10.30;99.90
26655;DHT22;14278;50.784;4.630;2023-04-01T04:47:12;10.30;99.90
26655;DHT22;14278;50.784;4.630;2023-04-01T04:49:38;10.20;99.90
26655;DHT22;14278;50.784;4.630;2023-04-01T04:52:04;10.20;99.90
26655;DHT22;14278;50.784;4.630;2023-04-01T04:54:30;10.30;99.90
26655;DHT22;14278;50.784;4.630;2023-04-01T04:56:56;10.40;99.90
26655;DHT22;14278;50.784;4.630;2023-04-01T04:59:22;10.20;99.90
26655;DHT22;14278;50.784;4.630;2023-04-01T05:01:47;10.30;99.90
26655;DHT22;14278;50.784;4.630;2023-04-01T05:04:14;10.60;99.90
26655;DHT22;14278;50.784;4.630;2023-04-01T05:06:40;10.40;99.90
26655;DHT22;14278;50.784;4.630;2023-04-01T05:09:05;10.30;99.90
26655;DHT22;14278;50.784;4.630;2023-04-01T05:11:31;10.40;99.90
26655;DHT22;14278;50.784;4.630;2023-04-01T05:13:57;10.30;99.90
26655;DHT22;14278;50.784;4.630;2023-04-01T05:16:23;10.50;99.90
26655;DHT22;14278;50.784;4.630;2023-04-01T05:18:49;10.40;99.90
26655;DHT22;14278;50.784;4.630;2023-04-01T05:21:15;10.20;99.90
26655;DHT22;14278;50.784;4.630;2023-04-01T05:23:42;10.40;99.90
26655;DHT22;14278;50.784;4.630;2023-04-01T05:26:11;10.40;99.90
26655;DHT22;14278;50.784;4.630;2023-04-01T05:28:38;10.20;99.90
26655;DHT22;14278;50.784;4.630;2023-04-01T05:31:04;10.20;99.90
26655;DHT22;14278;50.784;4.630;2023-04-01T05:33:31;10.20;99.90
26655;DHT22;14278;50.784;4.630;2023-04-01T05:36:09;10.10;99.90
26655;DHT22;14278;50.784;4.630;2023-04-01T05:38:35;10.00;99.90
26655;DHT22;14278;50.784;4.630;2023-04-01T05:41:02;10.20;99.90
26655;DHT22;14278;50.784;4.630;2023-04-01T05:43:29;10.10;99.90
26655;DHT22;14278;50.784;4.630;2023-04-01T05:45:56;10.10;99.90
26655;DHT22;14278;50.784;4.630;2023-04-01T05:48:22;10.20;99.90
26655;DHT22;14278;50.784;4.630;2023-04-01T05:50:47;10.20;99.90
26655;DHT22;14278;50.784;4.630;2023-04-01T05:53:14;10.10;99.90
26655;DHT22;14278;50.784;4.630;2023-04-01T05:55:40;10.10;99.90
26655;DHT22;14278;50.784;4.630;2023-04-01T05:58:05;10.20;99.90
26655;DHT22;14278;50.784;4.630;2023-04-01T06:00:31;10.20;99.90
26655;DHT22;14278;50.784;4.630;2023-04-01T06:02:59;10.10;99.90
26655;DHT22;14278;50.784;4.630;2023-04-01T06:05:28;10.30;99.90
26655;DHT22;14278;50.784;4.630;2023-04-01T06:08:08;10.30;99.90
26655;DHT22;14278;50.784;4.630;2023-04-01T06:19:11;10.20;99.90
26655;DHT22;14278;50.784;4.630;2023-04-01T06:32:48;10.10;99.90
26655;DHT22;14278;50.784;4.630;2023-04-01T06:41:05;10.40;99.90
26655;DHT22;14278;50.784;4.630;2023-04-01T06:51:36;10.30;99.90
26655;DHT22;14278;50.784;4.630;2023-04-01T06:54:16;10.50;99.90
26655;DHT22;14278;50.784;4.630;2023-04-01T06:56:46;10.50;99.90
26655;DHT22;14278;50.784;4.630;2023-04-01T06:59:17;10.40;99.90
26655;DHT22;14278;50.784;4.630;2023-04-01T07:01:52;10.30;99.90
26655;DHT22;14278;50.784;4.630;2023-04-01T07:04:43;10.40;99.90
26655;DHT22;14278;50.784;4.630;2023-04-01T07:07:35;10.40;99.90
26655;DHT22;14278;50.784;4.630;2023-04-01T07:10:28;10.60;99.90
26655;DHT22;14278;50.784;4.630;2023-04-01T07:12:58;10.70;99.90
26655;DHT22;14278;50.784;4.630;2023-04-01T07:15:36;10.60;99.90
26655;DHT22;14278;50.784;4.630;2023-04-01T07:18:12;10.70;99.90
26655;DHT22;14278;50.784;4.630;2023-04-01T07:20:39;10.60;99.90
26655;DHT22;14278;50.784;4.630;2023-04-01T07:23:21;10.90;99.90
26655;DHT22;14278;50.784;4.630;2023-04-01T07:25:52;10.60;99.90
26655;DHT22;14278;50.784;4.630;2023-04-01T07:28:19;10.40;99.90
26655;DHT22;14278;50.784;4.630;2023-04-01T07:30:53;10.40;99.90
26655;DHT22;14278;50.784;4.630;2023-04-01T07:33:37;10.40;99.90
26655;DHT22;14278;50.784;4.630;2023-04-01T07:41:55;10.90;99.90
26655;DHT22;14278;50.784;4.630;2023-04-01T07:44:42;10.60;99.90
26655;DHT22;14278;50.784;4.630;2023-04-01T07:47:40;10.70;99.90
26655;DHT22;14278;50.784;4.630;2023-04-01T07:55:30;11.00;99.90
26655;DHT22;14278;50.784;4.630;2023-04-01T07:58:07;11.20;99.90
26655;DHT22;14278;50.784;4.630;2023-04-01T08:01:11;11.00;99.90
26655;DHT22;14278;50.784;4.630;2023-04-01T08:06:19;11.60;99.90
26655;DHT22;14278;50.784;4.630;2023-04-01T08:08:48;11.60;99.90
26655;DHT22;14278;50.784;4.630;2023-04-01T08:16:44;12.00;99.90
26655;DHT22;14278;50.784;4.630;2023-04-01T08:20:18;11.80;99.90
26655;DHT22;14278;50.784;4.630;2023-04-01T08:22:26;11.70;99.90
26655;DHT22;14278;50.784;4.630;2023-04-01T08:24:55;11.80;99.90
26655;DHT22;14278;50.784;4.630;2023-04-01T08:27:34;11.80;99.90
26655;DHT22;14278;50.784;4.630;2023-04-01T08:30:24;11.60;99.90
26655;DHT22;14278;50.784;4.630;2023-04-01T08:33:40;11.90;99.90
26655;DHT22;14278;50.784;4.630;2023-04-01T08:36:03;12.10;99.90
26655;DHT22;14278;50.784;4.630;2023-04-01T08:38:38;11.80;99.90
26655;DHT22;14278;50.784;4.630;2023-04-01T08:52:07;11.70;99.90
26655;DHT22;14278;50.784;4.630;2023-04-01T08:55:04;11.60;99.90
26655;DHT22;14278;50.784;4.630;2023-04-01T08:58:07;11.80;99.90
26655;DHT22;14278;50.784;4.630;2023-04-01T09:06:31;11.60;99.90
26655;DHT22;14278;50.784;4.630;2023-04-01T09:15:20;11.50;99.90
26655;DHT22;14278;50.784;4.630;2023-04-01T09:21:01;11.90;99.90
26655;DHT22;14278;50.784;4.630;2023-04-01T09:31:20;11.70;99.90
26655;DHT22;14278;50.784;4.630;2023-04-01T09:34:30;11.60;99.90
26655;DHT22;14278;50.784;4.630;2023-04-01T09:40:21;12.10;99.90
26655;DHT22;14278;50.784;4.630;2023-04-01T09:46:15;12.30;99.90
26655;DHT22;14278;50.784;4.630;2023-04-01T10:06:20;13.30;99.90
26655;DHT22;14278;50.784;4.630;2023-04-01T10:11:51;13.40;99.90
26655;DHT22;14278;50.784;4.630;2023-04-01T10:19:46;13.10;99.90
26655;DHT22;14278;50.784;4.630;2023-04-01T10:22:35;13.20;99.90
26655;DHT22;14278;50.784;4.630;2023-04-01T10:33:47;13.40;99.90
26655;DHT22;14278;50.784;4.630;2023-04-01T10:36:52;12.80;99.90
26655;DHT22;14278;50.784;4.630;2023-04-01T10:40:26;12.70;99.90
26655;DHT22;14278;50.784;4.630;2023-04-01T10:45:54;13.30;99.90
26655;DHT22;14278;50.784;4.630;2023-04-01T11:05:24;13.10;99.90
26655;DHT22;14278;50.784;4.630;2023-04-01T11:22:50;13.40;99.90
26655;DHT22;14278;50.784;4.630;2023-04-01T11:25:58;13.20;99.90
26655;DHT22;14278;50.784;4.630;2023-04-01T11:33:57;13.90;99.90
26655;DHT22;14278;50.784;4.630;2023-04-01T11:42:24;13.60;99.90
26655;DHT22;14278;50.784;4.630;2023-04-01T11:53:36;14.00;99.90
26655;DHT22;14278;50.784;4.630;2023-04-01T11:59:37;13.70;99.90
26655;DHT22;14278;50.784;4.630;2023-04-01T12:07:55;13.40;99.90
26655;DHT22;14278;50.784;4.630;2023-04-01T12:16:39;13.60;99.90
26655;DHT22;14278;50.784;4.630;2023-04-01T12:27:43;13.50;99.90
26655;DHT22;14278;50.784;4.630;2023-04-01T12:30:47;13.20;99.90
26655;DHT22;14278;50.784;4.630;2023-04-01T12:33:27;12.80;99.90
26655;DHT22;14278;50.784;4.630;2023-04-01T12:36:18;13.10;99.90
26655;DHT22;14278;50.784;4.630;2023-04-01T12:44:40;12.80;99.90
26655;DHT22;14278;50.784;4.630;2023-04-01T12:49:56;13.00;99.90
26655;DHT22;14278;50.784;4.630;2023-04-01T12:58:07;13.00;99.90
26655;DHT22;14278;50.784;4.630;2023-04-01T13:14:30;12.20;99.90
26655;DHT22;14278;50.784;4.630;2023-04-01T13:17:03;12.20;99.90
26655;DHT22;14278;50.784;4.630;2023-04-01T13:28:15;12.30;99.90
26655;DHT22;14278;50.784;4.630;2023-04-01T13:30:50;12.40;99.90
26655;DHT22;14278;50.784;4.630;2023-04-01T13:33:35;12.80;99.90
26655;DHT22;14278;50.784;4.630;2023-04-01T13:58:01;11.80;99.90
26655;DHT22;14278;50.784;4.630;2023-04-01T14:20:33;12.40;99.90
26655;DHT22;14278;50.784;4.630;2023-04-01T14:26:18;12.40;99.90
26655;DHT22;14278;50.784;4.630;2023-04-01T14:29:15;12.50;99.90
26655;DHT22;14278;50.784;4.630;2023-04-01T14:38:02;12.70;99.90
26655;DHT22;14278;50.784;4.630;2023-04-01T14:43:39;13.30;99.90
26655;DHT22;14278;50.784;4.630;2023-04-01T14:49:04;13.20;99.90
26655;DHT22;14278;50.784;4.630;2023-04-01T14:51:31;12.90;99.90
26655;DHT22;14278;50.784;4.630;2023-04-01T14:56:50;13.20;99.90
26655;DHT22;14278;50.784;4.630;2023-04-01T15:02:14;13.10;99.90
26655;DHT22;14278;50.784;4.630;2023-04-01T15:15:22;12.90;99.90
26655;DHT22;14278;50.784;4.630;2023-04-01T15:18:07;13.10;99.90
26655;DHT22;14278;50.784;4.630;2023-04-01T15:32:28;12.50;99.90
26655;DHT22;14278;50.784;4.630;2023-04-01T15:35:39;12.30;99.90
26655;DHT22;14278;50.784;4.630;2023-04-01T15:38:38;12.60;99.90
26655;DHT22;14278;50.784;4.630;2023-04-01T15:43:51;12.60;99.90
26655;DHT22;14278;50.784;4.630;2023-04-01T15:59:52;12.40;99.90
26655;DHT22;14278;50.784;4.630;2023-04-01T16:05:02;12.00;99.90
26655;DHT22;14278;50.784;4.630;2023-04-01T16:10:22;11.60;99.90
26655;DHT22;14278;50.784;4.630;2023-04-01T16:24:28;11.70;99.90
26655;DHT22;14278;50.784;4.630;2023-04-01T16:27:11;11.90;99.90
26655;DHT22;14278;50.784;4.630;2023-04-01T16:35:59;11.60;99.90
26655;DHT22;14278;50.784;4.630;2023-04-01T16:41:11;11.80;99.90
26655;DHT22;14278;50.784;4.630;2023-04-01T16:43:55;11.80;99.90
26655;DHT22;14278;50.784;4.630;2023-04-01T16:46:39;11.60;99.90
26655;DHT22;14278;50.784;4.630;2023-04-01T16:54:29;11.50;99.90
26655;DHT22;14278;50.784;4.630;2023-04-01T16:59:44;11.00;99.90
26655;DHT22;14278;50.784;4.630;2023-04-01T17:02:14;11.40;99.90
26655;DHT22;14278;50.784;4.630;2023-04-01T17:07:39;11.40;99.90
26655;DHT22;14278;50.784;4.630;2023-04-01T17:16:16;11.10;99.90
26655;DHT22;14278;50.784;4.630;2023-04-01T17:18:53;11.10;99.90
26655;DHT22;14278;50.784;4.630;2023-04-01T17:22:13;11.40;99.90
26655;DHT22;14278;50.784;4.630;2023-04-01T17:27:44;11.20;99.90
26655;DHT22;14278;50.784;4.630;2023-04-01T17:30:22;10.70;99.90
26655;DHT22;14278;50.784;4.630;2023-04-01T17:33:11;11.00;99.90
26655;DHT22;14278;50.784;4.630;2023-04-01T17:46:38;11.40;99.90
26655;DHT22;14278;50.784;4.630;2023-04-01T17:55:15;11.30;99.90
26655;DHT22;14278;50.784;4.630;2023-04-01T17:58:06;11.20;99.90
26655;DHT22;14278;50.784;4.630;2023-04-01T18:01:03;11.30;99.90
26655;DHT22;14278;50.784;4.630;2023-04-01T18:15:27;10.90;99.90
26655;DHT22;14278;50.784;4.630;2023-04-01T18:27:21;10.80;99.90
26655;DHT22;14278;50.784;4.630;2023-04-01T18:35:29;11.30;99.90
26655;DHT22;14278;50.784;4.630;2023-04-01T18:43:31;11.20;99.90
26655;DHT22;14278;50.784;4.630;2023-04-01T18:46:22;11.10;99.90
26655;DHT22;14278;50.784;4.630;2023-04-01T18:49:00;11.10;99.90
26655;DHT22;14278;50.784;4.630;2023-04-01T18:56:45;11.10;99.90
26655;DHT22;14278;50.784;4.630;2023-04-01T18:59:37;10.90;99.90
26655;DHT22;14278;50.784;4.630;2023-04-01T19:02:38;11.20;99.90
26655;DHT22;14278;50.784;4.630;2023-04-01T19:05:13;11.40;99.90
26655;DHT22;14278;50.784;4.630;2023-04-01T19:07:49;10.90;99.90
26655;DHT22;14278;50.784;4.630;2023-04-01T19:13:30;11.10;99.90
26655;DHT22;14278;50.784;4.630;2023-04-01T19:21:44;11.00;99.90
26655;DHT22;14278;50.784;4.630;2023-04-01T19:35:42;11.20;99.90
26655;DHT22;14278;50.784;4.630;2023-04-01T19:38:20;10.90;99.90
26655;DHT22;14278;50.784;4.630;2023-04-01T19:40:52;11.10;99.90
26655;DHT22;14278;50.784;4.630;2023-04-01T19:46:14;11.00;99.90
26655;DHT22;14278;50.784;4.630;2023-04-01T19:57:22;10.80;99.90
26655;DHT22;14278;50.784;4.630;2023-04-01T20:00:07;10.90;99.90
26655;DHT22;14278;50.784;4.630;2023-04-01T20:03:32;10.90;99.90
26655;DHT22;14278;50.784;4.630;2023-04-01T20:14:15;11.10;99.90
26655;DHT22;14278;50.784;4.630;2023-04-01T20:17:13;11.10;99.90
26655;DHT22;14278;50.784;4.630;2023-04-01T20:19:48;11.00;99.90
26655;DHT22;14278;50.784;4.630;2023-04-01T20:24:51;10.90;99.90
26655;DHT22;14278;50.784;4.630;2023-04-01T20:27:27;10.80;99.90
26655;DHT22;14278;50.784;4.630;2023-04-01T20:30:23;10.90;99.90
26655;DHT22;14278;50.784;4.630;2023-04-01T20:39:24;10.60;99.90
26655;DHT22;14278;50.784;4.630;2023-04-01T20:49:53;10.80;99.90
26655;DHT22;14278;50.784;4.630;2023-04-01T20:52:37;11.00;99.90
26655;DHT22;14278;50.784;4.630;2023-04-01T21:03:56;10.80;99.90
26655;DHT22;14278;50.784;4.630;2023-04-01T21:06:39;10.90;99.90
26655;DHT22;14278;50.784;4.630;2023-04-01T21:15:41;11.20;99.90
26655;DHT22;14278;50.784;4.630;2023-04-01T21:31:50;10.80;99.90
26655;DHT22;14278;50.784;4.630;2023-04-01T21:37:04;11.10;99.90
26655;DHT22;14278;50.784;4.630;2023-04-01T21:40:00;10.90;99.90
26655;DHT22;14278;50.784;4.630;2023-04-01T21:51:33;11.20;99.90
26655;DHT22;14278;50.784;4.630;2023-04-01T21:54:16;11.00;99.90
26655;DHT22;14278;50.784;4.630;2023-04-01T21:57:03;10.90;99.90
26655;DHT22;14278;50.784;4.630;2023-04-01T22:05:28;10.90;99.90
26655;DHT22;14278;50.784;4.630;2023-04-01T22:08:21;10.90;99.90
26655;DHT22;14278;50.784;4.630;2023-04-01T22:11:16;11.10;99.90
26655;DHT22;14278;50.784;4.630;2023-04-01T22:13:57;11.00;99.90
26655;DHT22;14278;50.784;4.630;2023-04-01T22:16:37;10.90;99.90
26655;DHT22;14278;50.784;4.630;2023-04-01T22:19:19;10.70;99.90
26655;DHT22;14278;50.784;4.630;2023-04-01T22:21:55;10.80;99.90
26655;DHT22;14278;50.784;4.630;2023-04-01T22:27:26;10.60;99.90
26655;DHT22;14278;50.784;4.630;2023-04-01T22:32:59;10.70;99.90
26655;DHT22;14278;50.784;4.630;2023-04-01T22:38:13;10.40;99.90
26655;DHT22;14278;50.784;4.630;2023-04-01T22:43:38;10.70;99.90
26655;DHT22;14278;50.784;4.630;2023-04-01T22:46:26;10.70;99.90
26655;DHT22;14278;50.784;4.630;2023-04-01T22:49:11;10.70;99.90
26655;DHT22;14278;50.784;4.630;2023-04-01T22:51:55;10.30;99.90
26655;DHT22;14278;50.784;4.630;2023-04-01T22:54:28;10.40;99.90
26655;DHT22;14278;50.784;4.630;2023-04-01T22:57:40;10.50;99.90
26655;DHT22;14278;50.784;4.630;2023-04-01T23:00:13;10.40;99.90
26655;DHT22;14278;50.784;4.630;2023-04-01T23:02:43;10.60;99.90
26655;DHT22;14278;50.784;4.630;2023-04-01T23:05:14;10.50;99.90
26655;DHT22;14278;50.784;4.630;2023-04-01T23:08:00;10.70;99.90
26655;DHT22;14278;50.784;4.630;2023-04-01T23:10:51;10.80;99.90
26655;DHT22;14278;50.784;4.630;2023-04-01T23:13:26;11.10;99.90
26655;DHT22;14278;50.784;4.630;2023-04-01T23:15:54;11.00;99.90
26655;DHT22;14278;50.784;4.630;2023-04-01T23:18:46;11.10;99.90
26655;DHT22;14278;50.784;4.630;2023-04-01T23:21:21;11.00;99.90
26655;DHT22;14278;50.784;4.630;2023-04-01T23:26:56;10.90;99.90
26655;DHT22;14278;50.784;4.630;2023-04-01T23:29:25;11.00;99.90
26655;DHT22;14278;50.784;4.630;2023-04-01T23:32:02;10.70;99.90
26655;DHT22;14278;50.784;4.630;2023-04-01T23:34:34;10.50;99.90
26655;DHT22;14278;50.784;4.630;2023-04-01T23:37:07;10.80;99.90
26655;DHT22;14278;50.784;4.630;2023-04-01T23:39:38;10.70;99.90
26655;DHT22;14278;50.784;4.630;2023-04-01T23:42:26;10.50;99.90
26655;DHT22;14278;50.784;4.630;2023-04-01T23:44:56;10.40;99.90
26655;DHT22;14278;50.784;4.630;2023-04-01T23:47:33;10.40;99.90
26655;DHT22;14278;50.784;4.630;2023-04-01T23:52:40;10.50;99.90
26655;DHT22;14278;50.784;4.630;2023-04-01T23:57:37;10.40;99.90
